createdAt,value
2022-12-18T08:18:01.898Z,129
2022-12-18T08:22:43.309Z,135
2022-12-18T08:27:25.513Z,123
2022-12-18T08:32:07.746Z,135
2022-12-18T08:36:50.119Z,135
2022-12-18T08:41:32.404Z,157
2022-12-18T08:46:14.635Z,185
2022-12-18T08:50:56.967Z,180
2022-12-18T08:55:39.191Z,247
2022-12-18T09:00:21.524Z,258
2022-12-18T09:05:03.842Z,253
2022-12-18T09:09:46.068Z,225
2022-12-18T09:14:28.393Z,281
2022-12-18T09:19:10.632Z,258
2022-12-18T09:23:53.043Z,236
2022-12-18T09:28:35.179Z,292
2022-12-18T09:33:17.511Z,303
2022-12-18T09:37:59.854Z,354
2022-12-18T09:42:42.056Z,292
2022-12-18T09:47:24.388Z,258
2022-12-18T09:52:06.654Z,388
2022-12-18T10:01:31.171Z,281
2022-12-18T10:06:13.499Z,343
2022-12-18T10:10:55.828Z,326
2022-12-18T10:15:38.055Z,337
2022-12-18T10:20:20.395Z,326
2022-12-18T10:25:02.613Z,410
2022-12-18T10:29:44.948Z,421
2022-12-18T10:34:27.164Z,450
2022-12-18T10:39:09.586Z,405
2022-12-18T10:43:51.718Z,354
2022-12-18T10:48:34.085Z,382
2022-12-18T10:53:16.373Z,421
2022-12-18T10:57:58.599Z,450
2022-12-18T11:02:40.929Z,495
2022-12-18T11:07:23.155Z,579
2022-12-18T11:12:05.519Z,545
2022-12-18T11:16:47.708Z,416
2022-12-18T11:21:30.054Z,500
2022-12-18T11:26:12.427Z,534
2022-12-18T11:30:54.595Z,438
2022-12-18T11:35:36.923Z,466
2022-12-18T11:40:19.147Z,466
2022-12-18T11:45:01.477Z,376
2022-12-18T11:49:43.768Z,371
2022-12-18T11:54:26.029Z,421
2022-12-18T11:59:08.251Z,860
2022-12-18T12:03:50.585Z,973
2022-12-18T12:08:32.923Z,528
2022-12-18T12:13:15.188Z,517
2022-12-18T12:17:57.466Z,528
2022-12-18T12:22:39.701Z,461
2022-12-18T12:27:22.019Z,450
2022-12-18T12:32:04.258Z,427
2022-12-18T12:36:46.571Z,388
2022-12-18T12:41:28.800Z,478
2022-12-18T12:46:11.128Z,433
2022-12-18T12:50:53.513Z,472
2022-12-18T12:55:35.867Z,534
2022-12-18T13:00:18.112Z,545
2022-12-18T13:05:00.274Z,500
2022-12-18T13:09:42.506Z,461
2022-12-18T13:14:24.823Z,427
2022-12-18T13:19:07.102Z,433
2022-12-18T13:23:49.556Z,416
2022-12-18T13:28:31.839Z,399
2022-12-18T13:33:13.937Z,371
2022-12-18T13:37:56.348Z,354
2022-12-18T13:42:38.532Z,326
2022-12-18T13:47:20.818Z,275
2022-12-18T13:52:03.051Z,258
2022-12-18T13:56:45.368Z,241
2022-12-18T14:01:27.758Z,225
2022-12-18T14:06:09.924Z,208
2022-12-18T14:10:52.391Z,180
2022-12-18T14:15:34.473Z,151
2022-12-18T14:20:16.804Z,135
2022-12-18T14:24:59.035Z,118
2022-12-18T14:29:41.360Z,101
2022-12-18T14:34:23.591Z,90
2022-12-18T14:39:05.915Z,78
2022-12-18T14:43:48.241Z,73
2022-12-18T14:48:29.564Z,61
2022-12-18T14:57:53.124Z,39
2022-12-18T15:02:35.360Z,28
2022-12-18T15:12:00.007Z,11
2022-12-18T15:16:42.230Z,5
2022-12-18T15:21:24.557Z,5
2022-12-18T15:26:06.788Z,0
2022-12-18T15:30:49.113Z,0
2022-12-18T15:35:31.338Z,0
2022-12-18T15:40:13.666Z,0
2022-12-18T15:44:55.990Z,0
2022-12-18T15:49:38.221Z,0
2022-12-18T15:54:19.549Z,0
2022-12-18T15:59:01.871Z,0
2022-12-18T16:03:44.095Z,0
2022-12-18T16:08:26.418Z,0
2022-12-18T16:13:08.655Z,0
2022-12-18T16:17:50.983Z,0
2022-12-18T16:22:33.247Z,0
2022-12-18T16:27:15.537Z,0
2022-12-18T16:31:57.864Z,0
2022-12-18T16:36:39.185Z,0
2022-12-18T16:41:20.417Z,0
2022-12-18T16:46:02.745Z,0
2022-12-18T16:50:44.973Z,0
2022-12-18T16:55:27.312Z,0
2022-12-18T17:00:08.623Z,0
2022-12-18T17:04:49.951Z,0
2022-12-18T17:09:32.177Z,0
2022-12-18T17:14:14.502Z,0
2022-12-18T17:18:56.734Z,0
2022-12-18T17:23:39.056Z,0
2022-12-18T17:28:21.386Z,0
2022-12-18T17:33:03.608Z,0
2022-12-18T17:37:45.940Z,0
2022-12-18T17:42:28.168Z,0
2022-12-18T17:47:10.497Z,0
2022-12-18T17:51:52.849Z,0
2022-12-18T17:56:35.064Z,0
2022-12-18T18:01:17.380Z,0
2022-12-18T18:05:59.613Z,0
2022-12-18T18:15:23.327Z,0
2022-12-18T18:20:05.483Z,0
2022-12-18T18:24:47.819Z,0
2022-12-18T18:29:30.093Z,0
2022-12-18T18:38:54.700Z,0
2022-12-18T18:43:36.954Z,0
2022-12-18T18:48:19.255Z,0
2022-12-18T18:53:01.489Z,0
2022-12-18T18:57:43.809Z,0
2022-12-18T19:02:26.050Z,0
2022-12-18T19:07:08.362Z,0
2022-12-18T19:11:49.724Z,0
2022-12-18T19:16:31.922Z,0
2022-12-18T19:21:14.248Z,0
2022-12-18T19:25:56.488Z,0
2022-12-18T19:30:38.798Z,0
2022-12-18T19:35:21.133Z,0
2022-12-18T19:40:03.358Z,0
2022-12-18T19:44:45.729Z,0
2022-12-18T19:49:27.917Z,0
2022-12-18T19:54:10.296Z,0
2022-12-18T19:58:52.572Z,0
2022-12-18T20:03:34.894Z,0
2022-12-18T20:08:17.160Z,0
2022-12-18T20:12:58.352Z,0
2022-12-18T20:17:40.677Z,0
2022-12-18T20:22:23.014Z,0
2022-12-18T20:27:05.236Z,0
2022-12-18T20:31:47.578Z,0
2022-12-18T20:36:29.836Z,0
2022-12-18T20:41:12.125Z,0
2022-12-18T20:45:54.352Z,0
2022-12-18T20:50:36.685Z,0
2022-12-18T20:55:19.061Z,0
2022-12-18T21:00:01.739Z,0
2022-12-18T21:04:43.554Z,0
2022-12-18T21:09:25.848Z,0
2022-12-18T21:14:07.115Z,0
2022-12-18T21:18:49.442Z,0
2022-12-18T21:23:31.679Z,0
2022-12-18T21:28:13.996Z,0
2022-12-18T21:32:56.225Z,0
2022-12-18T21:37:38.594Z,0
2022-12-18T21:42:20.878Z,0
2022-12-18T21:47:03.111Z,0
2022-12-18T21:51:44.438Z,0
